Flight Track Log - Related Links

Times and Time Zones

All times are in EDT time to prevent confusion due to time zone crossing. See the AIE828 flight status page for this flight to view local times or setup timezone preferences in your user account.

Time Position Orientation Groundspeed Altitude Reporting Facility
EDT Latitude Longitude Course Direction KTS MPH feet Rate Location/Type
Sun 02:12:46 PM 58.0833 -68.4500 338° Northwest 130 150 1,500  Level Montreal Center
Sun 02:13:46 PM 58.1167 -68.4667 345° North 170 196 3,000 1,550 Climbing Montreal Center
Sun 02:14:46 PM 58.1667 -68.5167 332° Northwest 180 207 4,600 1,650 Climbing Montreal Center
Sun 02:15:46 PM 58.2167 -68.5500 341° North 180 207 6,300 1,600 Climbing Montreal Center
Sun 02:16:46 PM 58.2667 -68.5667 350° North 180 207 7,800 1,500 Climbing Montreal Center
Sun 02:17:46 PM 58.3167 -68.6167 332° Northwest 190 219 9,300 1,400 Climbing Montreal Center
Sun 02:18:00 PM 58.5515 -68.7743 338° Northwest  Level FlightAware Approximate
Sun 02:18:46 PM 58.3667 -68.6667 332° Northwest 200 230 10,600  Level Montreal Center
Sun 02:19:46 PM 58.4167 -68.7000 341° North 210 242 11,700 1,100 Climbing Montreal Center
Sun 02:20:46 PM 58.4833 -68.7500 339° North 220 253 12,800 650 Climbing Montreal Center
Sun 02:21:46 PM 58.5500 -68.8000 339° North 230 265 13,000 100 Climbing Montreal Center
Sun 02:22:46 PM 58.6167 -68.8500 339° North 260 299 13,000  Level Montreal Center
Sun 02:23:46 PM 58.6833 -68.9000 339° North 270 311 13,000  Level Montreal Center
Sun 02:24:46 PM 58.7500 -68.9500 339° North 270 311 13,000  Level Montreal Center
Sun 02:25:46 PM 58.8333 -69.0000 343° North 270 311 13,000  Level Montreal Center
Sun 02:26:46 PM 58.9000 -69.0500 339° North 270 311 13,000  Level Montreal Center
Sun 02:27:46 PM 58.9667 -69.1000 339° North 270 311 13,000  Level Montreal Center
Sun 02:28:46 PM 59.0333 -69.1667 333° Northwest 270 311 13,000  Level Montreal Center
Sun 02:29:46 PM 59.1000 -69.2167 339° North 270 311 13,000  Level Montreal Center
Sun 02:30:46 PM 59.1833 -69.2667 343° North 280 322 13,000  Level Montreal Center
Sun 02:31:46 PM 59.2500 -69.3500 327° Northwest 280 322 13,000  Level Montreal Center
Sun 02:32:46 PM 59.3333 -69.4000 343° North 280 322 13,000 -350 Level Montreal Center
Sun 02:33:46 PM 59.4000 -69.4500 339° North 280 322 12,300 -1,050 Descending Montreal Center
Sun 02:34:46 PM 59.4667 -69.5000 339° North 290 334 10,900 -1,350 Descending Montreal Center
Sun 02:35:46 PM 59.5500 -69.5500 343° North 290 334 9,600 -1,300 Descending Montreal Center
Sun 02:36:46 PM 59.6167 -69.6167 333° Northwest 280 322 8,300 -1,300 Descending Montreal Center
Sun 02:37:46 PM 59.6833 -69.6667 339° North 270 311 7,000 -1,250 Descending Montreal Center
Sun 02:38:46 PM 59.7500 -69.7167 339° North 260 299 5,800 -1,200 Descending Montreal Center
Sun 02:39:46 PM 59.8167 -69.7667 339° North 260 299 4,600 -1,200 Descending Montreal Center
Sun 02:41:00 PM 59.8948 -69.8510 332° Northwest  Level FlightAware Approximate
Sun 02:48:00 PM 60.3777 -69.8558 10° North  Level FlightAware Approximate
Sun 02:49:00 PM 60.4487 -69.8304 10° North  Level FlightAware Approximate
Sun 02:50:00 PM 60.5196 -69.8048 10° North  Level FlightAware Approximate
Sun 02:51:00 PM 60.5906 -69.7792 10° North  Level FlightAware Approximate
Sun 02:52:00 PM 60.6615 -69.7535 10° North  Level FlightAware Approximate
Sun 02:53:00 PM 60.7325 -69.7276 10° North  Level FlightAware Approximate
Sun 02:54:00 PM 60.8034 -69.7017 10° North  Level FlightAware Approximate
Sun 02:55:00 PM 60.8744 -69.6756 10° North  Level FlightAware Approximate
Sun 02:56:00 PM 60.9453 -69.6494 10° North  Level FlightAware Approximate
Sun 02:57:00 PM 61.0162 -69.6230 10° North  Level FlightAware Approximate
Sun 02:58:00 PM 61.0585 -69.7169 297° West  Level FlightAware Approximate
Sun 02:59:00 PM 61.0916 -69.8493 297° West  Level FlightAware Approximate
Sun 03:00:00 PM 61.1246 -69.9819 297° West  Level FlightAware Approximate
Sun 03:01:00 PM 61.1574 -70.1148 297° West  Level FlightAware Approximate
Sun 03:02:00 PM 61.1901 -70.2480 297° West  Level FlightAware Approximate
Sun 03:03:00 PM 61.2227 -70.3815 297° West  Level FlightAware Approximate
Sun 03:04:00 PM 61.2551 -70.5152 297° West  Level FlightAware Approximate
Sun 03:05:00 PM 61.2874 -70.6492 297° West  Level FlightAware Approximate
Sun 03:06:00 PM 61.3196 -70.7835 297° West  Level FlightAware Approximate
Sun 03:07:00 PM 61.3517 -70.9181 296° West  Level FlightAware Approximate
Sun 03:08:00 PM 61.3836 -71.0529 296° West  Level FlightAware Approximate
Sun 03:09:00 PM 61.4154 -71.1880 296° West  Level FlightAware Approximate
Sun 03:10:00 PM 61.4470 -71.3234 296° West  Level FlightAware Approximate
Sun 03:11:00 PM 61.4785 -71.4591 296° West  Level FlightAware Approximate
Sun 03:12:00 PM 61.5099 -71.5950 296° West  Level FlightAware Approximate
Sun 03:13:00 PM 61.5411 -71.7312 296° West  Level FlightAware Approximate
Sun 03:14:00 PM 61.5722 -71.8677 296° West  Level FlightAware Approximate
Sun 03:15:00 PM 61.5990 -72.0082 290° West  Level FlightAware Approximate
Sun 03:16:00 PM 61.6232 -72.1509 290° West  Level FlightAware Approximate
Sun 03:17:00 PM 61.6473 -72.2939 290° West  Level FlightAware Approximate
Sun 03:18:00 PM 61.6713 -72.4371 289° West  Level FlightAware Approximate
Sun 03:19:00 PM 61.6951 -72.5805 289° West  Level FlightAware Approximate
Sun 03:20:00 PM 61.7187 -72.7241 289° West  Level FlightAware Approximate
Sun 03:21:00 PM 61.7422 -72.8679 289° West  Level FlightAware Approximate
Sun 03:22:00 PM 61.7656 -73.0120 289° West  Level FlightAware Approximate
Sun 03:23:00 PM 61.7888 -73.1563 289° West  Level FlightAware Approximate
Sun 03:24:00 PM 61.8118 -73.3008 289° West  Level FlightAware Approximate
Sun 03:25:00 PM 61.8347 -73.4455 289° West  Level FlightAware Approximate
Sun 03:26:00 PM 61.8575 -73.5904 288° West  Level FlightAware Approximate
Sun 03:27:00 PM 61.8801 -73.7355 288° West  Level FlightAware Approximate
Sun 03:28:00 PM 61.9025 -73.8809 288° West  Level FlightAware Approximate
Sun 03:29:00 PM 61.9248 -74.0265 288° West  Level FlightAware Approximate
Sun 03:30:00 PM 61.9469 -74.1722 288° West  Level FlightAware Approximate
Sun 03:31:00 PM 61.9689 -74.3182 288° West  Level FlightAware Approximate
Sun 03:32:00 PM 61.9907 -74.4644 288° West  Level FlightAware Approximate
Sun 03:33:00 PM 62.0124 -74.6108 288° West  Level FlightAware Approximate
Sun 03:34:00 PM 62.0339 -74.7575 287° West  Level FlightAware Approximate
Sun 03:35:00 PM 62.0552 -74.9043 287° West  Level FlightAware Approximate
Sun 03:36:00 PM 62.0771 -75.0508 288° West  Level FlightAware Approximate
Sun 03:37:00 PM 62.0996 -75.1971 288° West  Level FlightAware Approximate
Sun 03:38:00 PM 62.1278 -75.3389 293° West  Level FlightAware Approximate
Sun 03:39:00 PM 62.1455 -75.4879 282° West  Level FlightAware Approximate
Sun 03:40:00 PM 62.1630 -75.6375 285° West  Level FlightAware Approximate
Sun 03:41:00 PM 62.1667 -75.6667 285° West  Level FlightAware Approximate
Sun 03:42:00 PM 62.1792 -75.6669 285° West  Level Estimated
Sun 03:43:00 PM 62.1792 -75.6669 285° West  Level Estimated
Sun 03:44:00 PM 62.1792 -75.6669 285° West  Level Estimated
Sun 03:45:00 PM 62.1792 -75.6669 285° West  Level Estimated
Sun 03:46:00 PM 62.1792 -75.6669 285° West  Level Estimated
Sun 03:47:00 PM 62.1792 -75.6669 285° West  Level Estimated
Sun 03:48:00 PM 62.1792 -75.6669 285° West  Level Estimated
Sun 03:49:00 PM 62.1792 -75.6669 285° West  Level Estimated
Sun 03:50:00 PM 62.1792 -75.6669 285° West  Level Estimated
Sun 03:51:00 PM 62.1792 -75.6669 285° West  Level Estimated
Sun 03:52:00 PM 62.1792 -75.6669 285° West  Level Estimated
Sun 03:53:00 PM 62.1792 -75.6669 285° West  Level Estimated

Login

Don't have an account? Register now (free) for customized features, flight alerts, and more!